createdAt,value
2017-07-30T00:00:32.776Z,7.65
2017-07-30T00:03:00.449Z,7.00
2017-07-30T00:05:28.079Z,7.82
2017-07-30T00:07:55.735Z,6.32
2017-07-30T00:10:23.382Z,7.93
2017-07-30T00:12:51.045Z,6.45
2017-07-30T00:15:18.722Z,7.03
2017-07-30T00:17:46.361Z,7.72
2017-07-30T00:20:14.788Z,6.95
2017-07-30T00:22:42.423Z,8.18
2017-07-30T00:25:10.062Z,7.28
2017-07-30T00:27:37.717Z,8.85
2017-07-30T00:30:05.335Z,8.38
2017-07-30T00:32:33.020Z,9.95
2017-07-30T00:35:00.660Z,12.10
2017-07-30T00:37:28.301Z,12.60
2017-07-30T00:39:55.966Z,11.10
2017-07-30T00:42:23.613Z,13.25
2017-07-30T00:44:51.280Z,14.15
2017-07-30T00:47:19.682Z,12.27
2017-07-30T00:49:47.326Z,12.77
2017-07-30T00:52:15.001Z,15.27
2017-07-30T00:54:42.655Z,18.37
2017-07-30T00:57:10.341Z,21.62
2017-07-30T00:59:38.757Z,22.87
2017-07-30T01:02:06.389Z,22.90
2017-07-30T01:04:34.060Z,23.30
2017-07-30T01:07:01.713Z,20.37
2017-07-30T01:09:29.379Z,19.60
2017-07-30T01:11:57.014Z,17.40
2017-07-30T01:14:24.650Z,16.83
2017-07-30T01:16:52.330Z,15.30
2017-07-30T01:19:20.736Z,15.63
2017-07-30T01:21:48.418Z,14.02
2017-07-30T01:24:16.061Z,13.80
2017-07-30T01:26:43.706Z,14.45
2017-07-30T01:29:11.376Z,12.65
2017-07-30T01:31:39.781Z,13.35
2017-07-30T01:34:07.459Z,12.48
2017-07-30T01:36:35.090Z,12.82
2017-07-30T01:39:02.757Z,14.05
2017-07-30T01:41:30.433Z,12.07
2017-07-30T01:43:58.841Z,13.07
2017-07-30T01:46:26.510Z,15.15
2017-07-30T01:48:54.157Z,13.73
2017-07-30T01:51:21.809Z,14.35
2017-07-30T01:53:49.492Z,15.32
2017-07-30T01:56:17.905Z,13.52
2017-07-30T01:58:45.575Z,14.82
2017-07-30T02:01:13.226Z,14.80
2017-07-30T02:03:40.863Z,16.20
2017-07-30T02:06:08.535Z,15.10
2017-07-30T02:08:36.945Z,14.30
2017-07-30T02:11:04.615Z,13.20
2017-07-30T02:13:32.254Z,14.55
2017-07-30T02:15:59.890Z,13.90
2017-07-30T02:18:27.582Z,13.05
2017-07-30T02:20:55.989Z,12.80
2017-07-30T02:23:23.658Z,13.15
2017-07-30T02:25:51.302Z,12.00
2017-07-30T02:28:18.954Z,11.23
2017-07-30T02:30:46.615Z,12.13
2017-07-30T02:33:14.249Z,12.57
2017-07-30T02:35:41.919Z,13.57
2017-07-30T02:38:09.552Z,12.10
2017-07-30T02:40:37.192Z,12.68
2017-07-30T02:43:04.869Z,11.73
2017-07-30T02:45:33.263Z,12.57
2017-07-30T02:48:00.931Z,10.60
2017-07-30T02:50:28.572Z,11.63
2017-07-30T02:52:56.222Z,10.02
2017-07-30T02:55:23.883Z,10.18
2017-07-30T02:57:51.529Z,9.23
2017-07-30T03:00:19.192Z,10.25
2017-07-30T03:02:46.828Z,11.05
2017-07-30T03:05:14.455Z,10.48
2017-07-30T03:07:42.120Z,9.45
2017-07-30T03:10:09.746Z,8.90
2017-07-30T03:12:37.420Z,10.93
2017-07-30T03:15:05.057Z,8.52
2017-07-30T03:17:32.679Z,8.20
2017-07-30T03:20:00.347Z,10.02
2017-07-30T03:22:28.008Z,8.70
2017-07-30T03:24:55.671Z,9.57
2017-07-30T03:27:23.303Z,10.55
2017-07-30T03:29:50.941Z,9.20
2017-07-30T03:32:18.598Z,8.82
2017-07-30T03:34:46.228Z,8.77
2017-07-30T03:37:13.897Z,8.07
2017-07-30T03:39:41.526Z,8.75
2017-07-30T03:42:09.153Z,7.85
2017-07-30T03:44:36.814Z,8.68
2017-07-30T03:47:04.448Z,7.55
2017-07-30T03:49:32.136Z,7.43
2017-07-30T03:51:59.770Z,7.37
2017-07-30T03:54:27.399Z,8.95
2017-07-30T03:56:55.066Z,8.43
2017-07-30T03:59:22.701Z,8.88
2017-07-30T04:01:50.360Z,8.65
2017-07-30T04:04:17.986Z,8.45
2017-07-30T04:06:45.632Z,8.43
2017-07-30T04:09:13.292Z,8.23
2017-07-30T04:11:40.928Z,8.50
2017-07-30T04:14:08.582Z,7.40
2017-07-30T04:16:36.224Z,7.75
2017-07-30T04:19:03.842Z,8.23
2017-07-30T04:21:31.504Z,6.72
2017-07-30T04:23:59.134Z,6.70
2017-07-30T04:26:26.804Z,7.00
2017-07-30T04:28:54.427Z,7.50
2017-07-30T04:31:22.062Z,6.57
2017-07-30T04:33:49.728Z,7.95
2017-07-30T04:36:17.357Z,8.25
2017-07-30T04:38:45.026Z,8.20
2017-07-30T04:41:12.661Z,7.28
2017-07-30T04:43:40.288Z,7.15
2017-07-30T04:46:07.978Z,6.90
2017-07-30T04:48:35.613Z,7.50
2017-07-30T04:51:03.280Z,6.30
2017-07-30T04:53:30.908Z,7.65
2017-07-30T04:55:58.577Z,5.97
2017-07-30T04:58:26.235Z,7.00
2017-07-30T05:00:53.869Z,7.60
2017-07-30T05:03:21.504Z,7.77
2017-07-30T05:05:49.112Z,7.27
2017-07-30T05:08:16.770Z,8.48
2017-07-30T05:10:45.181Z,6.97
2017-07-30T05:13:12.793Z,6.53
2017-07-30T05:15:40.432Z,7.00
2017-07-30T05:18:08.039Z,7.13
2017-07-30T05:20:35.659Z,6.93
2017-07-30T05:23:03.300Z,7.10
2017-07-30T05:25:30.900Z,7.23
2017-07-30T05:27:59.308Z,8.47
2017-07-30T05:30:26.909Z,8.17
2017-07-30T05:32:55.299Z,6.37
2017-07-30T05:35:22.936Z,6.60
2017-07-30T05:37:50.556Z,7.13
2017-07-30T05:40:18.194Z,6.53
2017-07-30T05:42:45.816Z,7.23
2017-07-30T05:45:13.426Z,6.13
2017-07-30T05:47:41.071Z,6.30
2017-07-30T05:50:08.703Z,6.53
2017-07-30T05:52:37.114Z,6.50
2017-07-30T05:55:04.719Z,5.77
2017-07-30T05:57:33.080Z,5.97
2017-07-30T06:00:01.510Z,8.30
2017-07-30T06:02:29.129Z,5.43
2017-07-30T06:04:56.777Z,4.70
2017-07-30T06:07:24.385Z,4.97
2017-07-30T06:09:52.769Z,5.10
2017-07-30T06:12:20.399Z,5.07
2017-07-30T06:14:48.009Z,4.87
2017-07-30T06:17:15.648Z,4.50
2017-07-30T06:19:43.260Z,7.27
2017-07-30T06:22:10.873Z,4.30
2017-07-30T06:24:38.556Z,4.87
2017-07-30T06:27:06.172Z,4.23
2017-07-30T06:29:34.582Z,4.67
2017-07-30T06:32:02.191Z,4.60
2017-07-30T06:34:29.791Z,4.40
2017-07-30T06:36:57.432Z,3.80
2017-07-30T06:39:25.042Z,4.10
2017-07-30T06:41:52.700Z,4.37
2017-07-30T06:44:20.311Z,4.47
2017-07-30T06:46:48.739Z,5.27
2017-07-30T06:49:16.403Z,4.83
2017-07-30T06:51:44.020Z,4.20
2017-07-30T06:54:11.661Z,5.03
2017-07-30T06:56:39.255Z,5.00
2017-07-30T06:59:07.638Z,6.37
2017-07-30T07:01:35.358Z,5.07
2017-07-30T07:04:03.737Z,3.73
2017-07-30T07:06:31.373Z,4.17
2017-07-30T07:08:59.765Z,4.90
2017-07-30T07:11:27.380Z,4.10
2017-07-30T07:13:55.790Z,4.80
2017-07-30T07:16:23.392Z,5.70
2017-07-30T07:18:51.028Z,4.90
2017-07-30T07:21:19.126Z,4.77
2017-07-30T07:23:46.857Z,4.30
2017-07-30T07:26:15.411Z,4.60
2017-07-30T07:28:43.873Z,4.70
2017-07-30T07:31:11.535Z,4.83
2017-07-30T07:33:39.189Z,4.17
2017-07-30T07:36:06.791Z,4.93
2017-07-30T07:38:34.448Z,6.60
2017-07-30T07:41:02.103Z,4.83
2017-07-30T07:43:29.739Z,3.97
2017-07-30T07:45:57.343Z,5.37
2017-07-30T07:48:24.943Z,4.70
2017-07-30T07:50:52.647Z,5.27
2017-07-30T07:53:20.271Z,4.93
2017-07-30T07:55:47.922Z,4.80
2017-07-30T07:58:15.533Z,4.20
2017-07-30T08:00:43.938Z,4.37
2017-07-30T08:03:11.588Z,4.53
2017-07-30T08:05:39.201Z,5.07
2017-07-30T08:08:07.617Z,4.93
2017-07-30T08:10:36.123Z,4.80
2017-07-30T08:13:03.868Z,5.10
2017-07-30T08:15:32.288Z,4.70
2017-07-30T08:17:59.908Z,4.27
2017-07-30T08:20:27.585Z,4.80
2017-07-30T08:22:55.785Z,4.70
2017-07-30T08:25:23.439Z,5.23
2017-07-30T08:27:51.857Z,4.30
2017-07-30T08:30:19.465Z,4.77
2017-07-30T08:32:47.115Z,4.63
2017-07-30T08:35:14.736Z,4.80
2017-07-30T08:37:43.109Z,4.27
2017-07-30T08:40:10.763Z,6.30
2017-07-30T08:42:38.392Z,4.07
2017-07-30T08:45:06.035Z,3.60
2017-07-30T08:47:33.632Z,4.60
2017-07-30T08:50:01.746Z,4.03
2017-07-30T08:52:29.562Z,8.10
2017-07-30T08:54:57.216Z,4.33
2017-07-30T08:57:24.857Z,4.17
2017-07-30T08:59:52.464Z,3.80
2017-07-30T09:02:20.164Z,4.00
2017-07-30T09:04:47.800Z,5.27
2017-07-30T09:07:15.410Z,3.70
2017-07-30T09:09:43.062Z,4.20
2017-07-30T09:12:10.797Z,3.73
2017-07-30T09:14:39.922Z,4.00
2017-07-30T09:17:08.621Z,3.73
2017-07-30T09:19:36.997Z,4.23
2017-07-30T09:22:05.424Z,3.97
2017-07-30T09:24:33.203Z,3.90
2017-07-30T09:27:00.937Z,4.37
2017-07-30T09:29:28.627Z,4.00
2017-07-30T09:31:56.261Z,3.77
2017-07-30T09:34:23.916Z,4.57
2017-07-30T09:36:51.542Z,3.87
2017-07-30T09:39:19.191Z,3.80
2017-07-30T09:41:47.606Z,6.13
2017-07-30T09:44:15.209Z,3.60
2017-07-30T09:46:42.872Z,3.13
2017-07-30T09:49:10.505Z,4.20
2017-07-30T09:51:38.122Z,3.93
2017-07-30T09:54:05.757Z,3.40
2017-07-30T09:56:33.378Z,3.73
2017-07-30T09:59:01.013Z,3.60
2017-07-30T10:01:28.680Z,3.60
2017-07-30T10:03:56.298Z,3.53
2017-07-30T10:06:23.931Z,3.73
2017-07-30T10:08:51.540Z,3.70
2017-07-30T10:11:19.176Z,3.10
2017-07-30T10:13:46.794Z,3.43
2017-07-30T10:16:14.406Z,4.63
2017-07-30T10:18:42.044Z,3.53
2017-07-30T10:21:10.433Z,3.53
2017-07-30T10:23:38.085Z,3.00
2017-07-30T10:26:05.684Z,2.80
2017-07-30T10:28:33.672Z,3.93
2017-07-30T10:31:01.466Z,3.10
2017-07-30T10:33:29.075Z,3.30
2017-07-30T10:35:56.711Z,3.30
2017-07-30T10:38:24.304Z,2.87
2017-07-30T10:40:51.929Z,3.70
2017-07-30T10:43:19.579Z,3.30
2017-07-30T10:45:47.190Z,4.13
2017-07-30T10:48:14.836Z,4.00
2017-07-30T10:50:42.481Z,4.33
2017-07-30T10:53:10.848Z,4.03
2017-07-30T10:55:38.482Z,3.90
2017-07-30T10:58:06.847Z,4.13
2017-07-30T11:00:35.637Z,4.03
2017-07-30T11:03:03.274Z,5.70
2017-07-30T11:05:35.446Z,5.00
2017-07-30T11:08:09.075Z,4.30
2017-07-30T11:10:36.687Z,6.13
2017-07-30T11:13:04.519Z,4.10
2017-07-30T11:15:32.516Z,4.20
2017-07-30T11:18:00.296Z,3.70
2017-07-30T11:20:28.805Z,3.60
2017-07-30T11:22:56.435Z,3.33
2017-07-30T11:25:24.072Z,3.40
2017-07-30T11:27:52.576Z,3.83
2017-07-30T11:30:20.185Z,4.10
2017-07-30T11:32:47.828Z,5.10
2017-07-30T11:35:16.199Z,3.47
2017-07-30T11:37:43.870Z,3.70
2017-07-30T11:40:11.479Z,4.40
2017-07-30T11:42:39.089Z,4.27
2017-07-30T11:45:06.734Z,3.83
2017-07-30T11:47:34.345Z,3.67
2017-07-30T11:50:01.980Z,4.30
2017-07-30T11:52:29.673Z,4.07
2017-07-30T11:54:57.302Z,4.13
2017-07-30T11:57:24.940Z,4.90
2017-07-30T11:59:52.562Z,4.10
2017-07-30T12:02:20.205Z,4.50
2017-07-30T12:04:47.800Z,3.87
2017-07-30T12:07:15.465Z,5.13
2017-07-30T12:09:43.111Z,4.67
2017-07-30T12:12:10.864Z,4.93
2017-07-30T12:14:39.338Z,5.03
2017-07-30T12:17:06.973Z,4.13
2017-07-30T12:19:34.568Z,4.47
2017-07-30T12:22:02.213Z,4.43
2017-07-30T12:24:29.828Z,4.50
2017-07-30T12:26:58.257Z,3.73
2017-07-30T12:29:25.846Z,3.90
2017-07-30T12:31:54.207Z,4.20
2017-07-30T12:34:22.621Z,4.47
2017-07-30T12:36:50.230Z,4.37
2017-07-30T12:39:17.870Z,4.27
2017-07-30T12:41:45.475Z,4.13
2017-07-30T12:44:13.093Z,4.97
2017-07-30T12:46:40.731Z,3.93
2017-07-30T12:49:08.348Z,4.13
2017-07-30T12:51:36.107Z,4.10
2017-07-30T12:54:03.779Z,4.60
2017-07-30T12:56:31.417Z,4.20
2017-07-30T12:58:59.076Z,4.57
2017-07-30T13:01:26.689Z,4.53
2017-07-30T13:03:55.106Z,5.20
2017-07-30T13:06:22.707Z,4.47
2017-07-30T13:08:50.515Z,4.23
2017-07-30T13:11:18.945Z,4.63
2017-07-30T13:13:46.563Z,4.30
2017-07-30T13:16:14.395Z,4.30
2017-07-30T13:18:42.774Z,3.93
2017-07-30T13:21:11.156Z,5.40
2017-07-30T13:23:38.957Z,4.70
2017-07-30T13:26:06.590Z,3.90
2017-07-30T13:28:34.223Z,4.90
2017-07-30T13:31:01.884Z,4.30
2017-07-30T13:33:29.669Z,4.03
2017-07-30T13:35:57.509Z,4.80
2017-07-30T13:38:25.348Z,4.87
2017-07-30T13:40:53.145Z,5.00
2017-07-30T13:43:20.811Z,4.10
2017-07-30T13:45:48.424Z,4.07
2017-07-30T13:48:16.603Z,4.00
2017-07-30T13:50:44.241Z,3.63
2017-07-30T13:53:11.890Z,3.73
2017-07-30T13:55:39.636Z,3.23
2017-07-30T13:58:07.244Z,4.03
2017-07-30T14:00:35.042Z,3.50
2017-07-30T14:03:02.681Z,3.50
2017-07-30T14:05:30.544Z,3.17
2017-07-30T14:07:58.161Z,3.50
2017-07-30T14:10:25.790Z,3.77
2017-07-30T14:12:53.430Z,3.63
2017-07-30T14:15:21.040Z,3.57
2017-07-30T14:17:48.734Z,4.53
2017-07-30T14:20:17.312Z,3.27
2017-07-30T14:22:45.689Z,3.23
2017-07-30T14:25:13.349Z,3.90
2017-07-30T14:27:40.958Z,6.23
2017-07-30T14:30:09.364Z,3.50
2017-07-30T14:32:36.975Z,3.53
2017-07-30T14:35:05.396Z,3.77
2017-07-30T14:37:33.335Z,3.30
2017-07-30T14:40:01.760Z,3.20
2017-07-30T14:42:29.472Z,3.40
2017-07-30T14:44:57.202Z,3.80
2017-07-30T14:47:24.818Z,3.27
2017-07-30T14:49:52.446Z,3.30
2017-07-30T14:52:20.830Z,3.23
2017-07-30T14:54:48.497Z,2.80
2017-07-30T14:57:16.105Z,3.30
2017-07-30T14:59:44.471Z,3.37
2017-07-30T15:02:12.890Z,4.00
2017-07-30T15:04:40.504Z,3.23
2017-07-30T15:07:08.152Z,3.10
2017-07-30T15:09:35.757Z,2.77
2017-07-30T15:12:03.359Z,6.10
2017-07-30T15:14:31.029Z,3.03
2017-07-30T15:16:58.642Z,6.87
2017-07-30T15:19:26.300Z,3.33
2017-07-30T15:21:53.918Z,3.80
2017-07-30T15:24:21.519Z,3.50
2017-07-30T15:26:49.158Z,3.10
2017-07-30T15:29:16.769Z,2.90
2017-07-30T15:31:44.397Z,3.00
2017-07-30T15:34:12.007Z,3.70
2017-07-30T15:36:39.625Z,3.40
2017-07-30T15:39:07.252Z,3.20
2017-07-30T15:41:34.869Z,3.20
2017-07-30T15:44:03.294Z,3.73
2017-07-30T15:46:30.900Z,3.20
2017-07-30T15:48:58.504Z,3.20
2017-07-30T15:51:26.162Z,2.90
2017-07-30T15:53:53.781Z,5.50
2017-07-30T15:56:23.308Z,2.60
2017-07-30T15:58:51.667Z,3.53
2017-07-30T16:01:20.064Z,3.13
2017-07-30T16:03:47.813Z,2.73
2017-07-30T16:06:15.425Z,3.20
2017-07-30T16:08:43.065Z,3.43
2017-07-30T16:11:10.674Z,3.00
2017-07-30T16:13:39.458Z,5.03
2017-07-30T16:16:08.821Z,3.70
2017-07-30T16:18:36.449Z,3.27
2017-07-30T16:21:04.080Z,3.60
2017-07-30T16:23:31.683Z,3.43
2017-07-30T16:25:59.294Z,3.50
2017-07-30T16:28:26.932Z,3.90
2017-07-30T16:30:54.563Z,3.63
2017-07-30T16:33:23.333Z,3.73
2017-07-30T16:35:51.070Z,3.07
2017-07-30T16:38:19.457Z,5.27
2017-07-30T16:40:47.464Z,3.23
2017-07-30T16:43:15.103Z,4.50
2017-07-30T16:45:42.775Z,4.23
2017-07-30T16:48:11.205Z,3.60
2017-07-30T16:50:38.823Z,4.17
2017-07-30T16:53:06.474Z,4.30
2017-07-30T16:55:34.116Z,4.30
2017-07-30T16:58:02.857Z,3.73
2017-07-30T17:00:30.565Z,5.70
2017-07-30T17:02:58.234Z,4.17
2017-07-30T17:05:25.881Z,4.53
2017-07-30T17:07:53.500Z,5.20
2017-07-30T17:10:21.142Z,4.97
2017-07-30T17:12:52.386Z,5.87
2017-07-30T17:15:20.726Z,7.00
2017-07-30T17:17:48.529Z,5.97
2017-07-30T17:20:16.289Z,7.73
2017-07-30T17:22:43.985Z,6.00
2017-07-30T17:25:11.733Z,7.20
2017-07-30T17:27:39.406Z,6.80
2017-07-30T17:30:07.776Z,5.97
2017-07-30T17:32:36.168Z,7.50
2017-07-30T17:35:03.830Z,8.20
2017-07-30T17:37:32.306Z,5.83
2017-07-30T17:40:00.031Z,6.10
2017-07-30T17:42:27.818Z,4.50
2017-07-30T17:44:55.473Z,4.50
2017-07-30T17:47:23.125Z,6.00
2017-07-30T17:49:50.725Z,5.93
2017-07-30T17:52:18.377Z,6.43
2017-07-30T17:54:46.069Z,5.03
2017-07-30T17:57:14.506Z,6.80
2017-07-30T17:59:42.188Z,7.43
2017-07-30T18:02:10.666Z,6.20
2017-07-30T18:04:38.381Z,5.70
2017-07-30T18:07:06.818Z,6.73
2017-07-30T18:09:34.464Z,6.77
2017-07-30T18:12:02.210Z,6.00
2017-07-30T18:14:30.005Z,4.57
2017-07-30T18:16:57.666Z,4.30
2017-07-30T18:19:25.320Z,4.70
2017-07-30T18:21:53.688Z,4.80
2017-07-30T18:24:21.369Z,4.87
2017-07-30T18:26:49.637Z,6.73
2017-07-30T18:29:17.294Z,6.10
2017-07-30T18:31:45.119Z,5.97
2017-07-30T18:34:12.847Z,6.13
2017-07-30T18:36:41.211Z,4.70
2017-07-30T18:39:08.829Z,6.43
2017-07-30T18:41:36.528Z,4.40
2017-07-30T18:44:04.812Z,4.60
2017-07-30T18:46:32.757Z,4.23
2017-07-30T18:49:00.539Z,4.07
2017-07-30T18:51:28.149Z,4.30
2017-07-30T18:53:55.864Z,4.90
2017-07-30T18:56:23.587Z,7.13
2017-07-30T18:58:52.011Z,5.60
2017-07-30T19:01:19.893Z,4.40
2017-07-30T19:03:47.522Z,6.07
2017-07-30T19:06:15.172Z,5.80
2017-07-30T19:08:42.810Z,8.20
2017-07-30T19:11:10.407Z,5.60
2017-07-30T19:13:38.054Z,7.77
2017-07-30T19:16:05.662Z,5.53
2017-07-30T19:18:33.313Z,5.23
2017-07-30T19:21:00.926Z,4.03
2017-07-30T19:23:28.541Z,4.57
2017-07-30T19:25:56.169Z,7.00
2017-07-30T19:28:24.528Z,5.73
2017-07-30T19:30:52.155Z,4.50
2017-07-30T19:33:19.791Z,4.63
2017-07-30T19:35:47.384Z,4.43
2017-07-30T19:38:15.013Z,5.40
2017-07-30T19:40:43.383Z,4.93
2017-07-30T19:43:11.797Z,4.23
2017-07-30T19:45:40.351Z,5.03
2017-07-30T19:48:07.960Z,6.20
2017-07-30T19:50:36.361Z,5.20
2017-07-30T19:53:03.973Z,6.10
2017-07-30T19:55:31.676Z,5.07
2017-07-30T19:58:00.109Z,5.63
2017-07-30T20:00:27.763Z,4.40
2017-07-30T20:02:55.406Z,8.17
2017-07-30T20:05:23.022Z,6.63
2017-07-30T20:07:51.427Z,4.70
2017-07-30T20:10:19.036Z,4.67
2017-07-30T20:12:47.214Z,4.90
2017-07-30T20:15:14.848Z,4.67
2017-07-30T20:17:42.462Z,5.10
2017-07-30T20:20:10.113Z,5.80
2017-07-30T20:22:38.754Z,5.13
2017-07-30T20:25:07.162Z,7.10
2017-07-30T20:27:34.809Z,6.97
2017-07-30T20:30:03.185Z,5.17
2017-07-30T20:32:30.852Z,5.90
2017-07-30T20:34:59.213Z,5.30
2017-07-30T20:37:26.836Z,5.00
2017-07-30T20:39:54.481Z,5.60
2017-07-30T20:42:22.856Z,5.60
2017-07-30T20:44:51.698Z,4.87
2017-07-30T20:47:19.365Z,5.27
2017-07-30T20:49:46.973Z,5.97
2017-07-30T20:52:14.616Z,4.70
2017-07-30T20:54:42.221Z,4.90
2017-07-30T20:57:10.808Z,5.07
2017-07-30T20:59:38.461Z,4.67
2017-07-30T21:02:06.055Z,4.80
2017-07-30T21:04:34.454Z,5.33
2017-07-30T21:07:03.361Z,4.47
2017-07-30T21:09:31.105Z,7.13
2017-07-30T21:11:58.758Z,4.60
2017-07-30T21:14:26.354Z,6.30
2017-07-30T21:16:54.257Z,5.67
2017-07-30T21:19:21.855Z,4.60
2017-07-30T21:21:49.525Z,5.33
2017-07-30T21:24:17.145Z,4.57
2017-07-30T21:26:45.857Z,6.17
2017-07-30T21:29:13.950Z,5.20
2017-07-30T21:31:41.575Z,6.47
2017-07-30T21:34:09.312Z,4.67
2017-07-30T21:36:36.936Z,5.37
2017-07-30T21:39:04.848Z,7.40
2017-07-30T21:41:33.643Z,5.60
2017-07-30T21:44:01.313Z,5.40
2017-07-30T21:46:28.947Z,7.00
2017-07-30T21:48:56.556Z,5.20
2017-07-30T21:51:24.930Z,4.83
2017-07-30T21:53:53.332Z,5.80
2017-07-30T21:56:20.953Z,7.50
2017-07-30T21:58:48.602Z,5.27
2017-07-30T22:01:17.735Z,4.87
2017-07-30T22:03:45.421Z,6.63
2017-07-30T22:06:13.828Z,5.80
2017-07-30T22:08:41.438Z,5.30
2017-07-30T22:11:09.084Z,6.23
2017-07-30T22:13:36.702Z,5.17
2017-07-30T22:16:04.315Z,5.60
2017-07-30T22:18:31.960Z,5.87
2017-07-30T22:20:59.611Z,6.87
2017-07-30T22:23:27.273Z,6.50
2017-07-30T22:25:54.880Z,5.37
2017-07-30T22:28:22.480Z,6.13
2017-07-30T22:30:50.134Z,6.70
2017-07-30T22:33:18.531Z,6.07
2017-07-30T22:35:46.164Z,7.20
2017-07-30T22:38:13.777Z,6.90
2017-07-30T22:40:41.405Z,5.60
2017-07-30T22:43:09.073Z,6.00
2017-07-30T22:45:36.677Z,5.23
2017-07-30T22:48:04.323Z,5.47
2017-07-30T22:50:31.916Z,6.37
2017-07-30T22:52:59.537Z,6.03
2017-07-30T22:55:27.167Z,6.87
2017-07-30T22:57:54.767Z,6.17
2017-07-30T23:00:23.173Z,8.43
2017-07-30T23:02:50.775Z,6.60
2017-07-30T23:05:18.381Z,6.43
2017-07-30T23:07:46.019Z,5.80
2017-07-30T23:10:13.624Z,7.70
2017-07-30T23:12:41.269Z,6.53
2017-07-30T23:15:08.878Z,6.63
2017-07-30T23:17:36.493Z,8.00
2017-07-30T23:20:04.153Z,7.10
2017-07-30T23:22:31.759Z,5.40
2017-07-30T23:24:59.441Z,6.10
2017-07-30T23:27:27.049Z,6.23
2017-07-30T23:29:54.664Z,7.17
2017-07-30T23:32:22.305Z,7.67
2017-07-30T23:34:49.924Z,6.60
2017-07-30T23:37:17.565Z,6.80
2017-07-30T23:39:45.160Z,5.80
2017-07-30T23:42:13.525Z,6.20
2017-07-30T23:44:41.937Z,6.80
2017-07-30T23:47:09.561Z,6.60
2017-07-30T23:49:37.202Z,5.80
2017-07-30T23:52:04.803Z,6.47
2017-07-30T23:54:32.410Z,6.70
2017-07-30T23:57:00.103Z,6.83
2017-07-30T23:59:27.729Z,6.90
